createdAt,value
2023-07-02T00:00:45.081Z,25.34
2023-07-02T00:01:45.121Z,25.37
2023-07-02T00:02:45.145Z,25.39
2023-07-02T00:03:45.135Z,25.40
2023-07-02T00:04:45.137Z,25.42
2023-07-02T00:05:45.091Z,25.42
2023-07-02T00:06:45.085Z,25.43
2023-07-02T00:07:45.112Z,25.43
2023-07-02T00:08:45.078Z,25.44
2023-07-02T00:09:45.069Z,25.44
2023-07-02T00:10:45.175Z,25.43
2023-07-02T00:11:45.064Z,25.44
2023-07-02T00:12:45.072Z,25.44
2023-07-02T00:13:45.098Z,25.44
2023-07-02T00:14:45.068Z,25.44
2023-07-02T00:15:45.055Z,25.44
2023-07-02T00:16:45.117Z,25.45
2023-07-02T00:17:45.100Z,25.44
2023-07-02T00:18:45.057Z,25.44
2023-07-02T00:19:45.057Z,25.44
2023-07-02T00:20:45.374Z,25.44
2023-07-02T00:21:45.055Z,25.44
2023-07-02T00:22:45.058Z,25.44
2023-07-02T00:23:45.093Z,25.44
2023-07-02T00:24:45.055Z,25.44
2023-07-02T00:25:45.052Z,25.43
2023-07-02T00:26:45.054Z,25.43
2023-07-02T00:27:45.061Z,25.43
2023-07-02T00:28:45.033Z,25.43
2023-07-02T00:29:45.064Z,25.44
2023-07-02T00:30:45.172Z,25.44
2023-07-02T00:31:45.037Z,25.43
2023-07-02T00:32:45.070Z,25.43
2023-07-02T00:33:45.038Z,25.43
2023-07-02T00:34:45.055Z,25.43
2023-07-02T00:35:45.051Z,25.43
2023-07-02T00:36:45.051Z,25.43
2023-07-02T00:37:45.055Z,25.43
2023-07-02T00:38:45.060Z,25.42
2023-07-02T00:39:45.065Z,25.42
2023-07-02T00:40:45.086Z,25.43
2023-07-02T00:41:45.063Z,25.43
2023-07-02T00:42:45.069Z,25.43
2023-07-02T00:43:45.070Z,25.42
2023-07-02T00:44:45.089Z,25.43
2023-07-02T00:45:45.109Z,25.43
2023-07-02T00:46:45.111Z,25.42
2023-07-02T00:47:45.111Z,25.43
2023-07-02T00:48:45.104Z,25.42
2023-07-02T00:49:45.116Z,25.41
2023-07-02T00:50:45.200Z,25.42
2023-07-02T00:51:45.130Z,25.42
2023-07-02T00:52:45.121Z,25.42
2023-07-02T00:53:45.135Z,25.41
2023-07-02T00:54:45.137Z,25.42
2023-07-02T00:55:45.192Z,25.42
2023-07-02T00:56:45.139Z,25.42
2023-07-02T00:57:45.151Z,25.41
2023-07-02T00:58:45.163Z,25.41
2023-07-02T00:59:45.165Z,25.41
2023-07-02T01:00:45.286Z,25.41
2023-07-02T01:01:45.245Z,25.41
2023-07-02T01:02:45.344Z,25.41
2023-07-02T01:03:45.184Z,25.41
2023-07-02T01:04:45.253Z,25.40
2023-07-02T01:05:45.229Z,25.41
2023-07-02T01:06:45.198Z,25.41
2023-07-02T01:07:45.270Z,25.41
2023-07-02T01:08:45.210Z,25.41
2023-07-02T01:09:45.240Z,25.41
2023-07-02T01:10:45.324Z,25.41
2023-07-02T01:11:45.320Z,25.41
2023-07-02T01:12:45.242Z,25.40
2023-07-02T01:13:45.259Z,25.41
2023-07-02T01:14:45.257Z,25.40
2023-07-02T01:15:45.278Z,25.41
2023-07-02T01:16:45.349Z,25.41
2023-07-02T01:17:45.311Z,25.40
2023-07-02T01:18:45.270Z,25.40
2023-07-02T01:19:45.278Z,25.40
2023-07-02T01:20:45.391Z,25.41
2023-07-02T01:21:45.284Z,25.40
2023-07-02T01:22:45.308Z,25.40
2023-07-02T01:23:45.302Z,25.40
2023-07-02T01:24:45.321Z,25.39
2023-07-02T01:25:45.311Z,25.39
2023-07-02T01:26:45.323Z,25.40
2023-07-02T01:27:45.335Z,25.39
2023-07-02T01:28:45.343Z,25.39
2023-07-02T01:29:45.366Z,25.39
2023-07-02T01:30:45.371Z,25.39
2023-07-02T01:31:45.416Z,25.39
2023-07-02T01:32:45.419Z,25.39
2023-07-02T01:33:45.415Z,25.39
2023-07-02T01:34:45.415Z,25.39
2023-07-02T01:35:45.420Z,25.39
2023-07-02T01:36:45.431Z,25.39
2023-07-02T01:37:45.432Z,25.39
2023-07-02T01:38:45.439Z,25.39
2023-07-02T01:39:45.456Z,25.39
2023-07-02T01:40:45.527Z,25.39
2023-07-02T01:41:45.470Z,25.39
2023-07-02T01:42:45.475Z,25.38
2023-07-02T01:43:45.484Z,25.39
2023-07-02T01:44:45.502Z,25.39
2023-07-02T01:45:45.516Z,25.39
2023-07-02T01:46:45.512Z,25.38
2023-07-02T01:47:45.520Z,25.38
2023-07-02T01:48:45.527Z,25.39
2023-07-02T01:49:45.607Z,25.39
2023-07-02T01:50:45.636Z,25.38
2023-07-02T01:51:45.551Z,25.38
2023-07-02T01:52:45.569Z,25.38
2023-07-02T01:53:45.607Z,25.38
2023-07-02T01:54:45.584Z,25.38
2023-07-02T01:55:45.597Z,25.38
2023-07-02T01:56:45.591Z,25.38
2023-07-02T01:57:45.600Z,25.38
2023-07-02T01:58:45.610Z,25.38
2023-07-02T01:59:45.990Z,25.37
2023-07-02T02:00:45.755Z,25.38
2023-07-02T02:01:45.650Z,25.37
2023-07-02T02:02:45.678Z,25.38
2023-07-02T02:03:45.710Z,25.36
2023-07-02T02:04:45.727Z,25.37
2023-07-02T02:05:45.736Z,25.37
2023-07-02T02:06:45.754Z,25.38
2023-07-02T02:07:45.740Z,25.37
2023-07-02T02:08:45.737Z,25.37
2023-07-02T02:09:45.749Z,25.37
2023-07-02T02:10:45.852Z,25.37
2023-07-02T02:11:45.790Z,25.36
2023-07-02T02:12:45.785Z,25.37
2023-07-02T02:13:45.804Z,25.36
2023-07-02T02:14:45.818Z,25.37
2023-07-02T02:15:45.911Z,25.36
2023-07-02T02:16:45.937Z,25.36
2023-07-02T02:17:45.859Z,25.36
2023-07-02T02:18:45.873Z,25.36
2023-07-02T02:19:45.898Z,25.35
2023-07-02T02:20:46.234Z,25.35
2023-07-02T02:21:45.948Z,25.36
2023-07-02T02:22:45.942Z,25.35
2023-07-02T02:23:45.936Z,25.35
2023-07-02T02:24:45.961Z,25.36
2023-07-02T02:25:45.973Z,25.35
2023-07-02T02:26:45.987Z,25.35
2023-07-02T02:27:46.011Z,25.36
2023-07-02T02:28:46.023Z,25.35
2023-07-02T02:29:46.027Z,25.35
2023-07-02T02:30:46.272Z,25.35
2023-07-02T02:31:46.123Z,25.34
2023-07-02T02:32:46.106Z,25.35
2023-07-02T02:33:46.079Z,25.35
2023-07-02T02:34:46.094Z,25.35
2023-07-02T02:35:46.111Z,25.35
2023-07-02T02:36:46.132Z,25.35
2023-07-02T02:37:46.164Z,25.35
2023-07-02T02:38:46.216Z,25.35
2023-07-02T02:39:46.161Z,25.35
2023-07-02T02:40:46.280Z,25.34
2023-07-02T02:41:46.198Z,25.34
2023-07-02T02:42:46.210Z,25.34
2023-07-02T02:43:46.217Z,25.35
2023-07-02T02:44:46.228Z,25.34
2023-07-02T02:45:46.240Z,25.34
2023-07-02T02:46:46.267Z,25.35
2023-07-02T02:47:46.343Z,25.34
2023-07-02T02:48:46.276Z,25.34
2023-07-02T02:49:46.292Z,25.34
2023-07-02T02:50:46.636Z,25.34
2023-07-02T02:51:46.341Z,25.34
2023-07-02T02:52:46.360Z,25.34
2023-07-02T02:53:46.378Z,25.34
2023-07-02T02:54:46.374Z,25.34
2023-07-02T02:55:46.401Z,25.33
2023-07-02T02:56:46.402Z,25.34
2023-07-02T02:57:46.429Z,25.34
2023-07-02T02:58:46.446Z,25.33
2023-07-02T02:59:46.466Z,25.33
2023-07-02T03:00:46.652Z,25.33
2023-07-02T03:01:46.513Z,25.33
2023-07-02T03:02:46.588Z,25.34
2023-07-02T03:03:46.906Z,25.33
2023-07-02T03:04:46.596Z,25.34
2023-07-02T03:05:46.550Z,25.34
2023-07-02T03:06:46.561Z,25.33
2023-07-02T03:07:46.574Z,25.33
2023-07-02T03:08:46.583Z,25.34
2023-07-02T03:09:46.642Z,25.33
2023-07-02T03:10:47.067Z,25.33
2023-07-02T03:11:46.687Z,25.33
2023-07-02T03:12:46.666Z,25.33
2023-07-02T03:13:46.682Z,25.32
2023-07-02T03:14:46.712Z,25.33
2023-07-02T03:15:46.716Z,25.33
2023-07-02T03:16:46.813Z,25.33
2023-07-02T03:17:46.796Z,25.32
2023-07-02T03:18:46.762Z,25.33
2023-07-02T03:19:46.784Z,25.32
2023-07-02T03:20:47.010Z,25.33
2023-07-02T03:21:46.831Z,25.33
2023-07-02T03:22:46.824Z,25.32
2023-07-02T03:23:46.854Z,25.33
2023-07-02T03:24:48.949Z,25.32
2023-07-02T03:25:46.875Z,25.33
2023-07-02T03:26:46.845Z,25.32
2023-07-02T03:27:46.868Z,25.32
2023-07-02T03:28:46.827Z,25.32
2023-07-02T03:29:46.832Z,25.32
2023-07-02T03:30:46.993Z,25.32
2023-07-02T03:31:46.811Z,25.31
2023-07-02T03:32:46.894Z,25.32
2023-07-02T03:33:46.796Z,25.32
2023-07-02T03:34:46.793Z,25.31
2023-07-02T03:35:46.800Z,25.31
2023-07-02T03:36:46.796Z,25.32
2023-07-02T03:37:46.770Z,25.32
2023-07-02T03:38:46.762Z,25.32
2023-07-02T03:39:46.762Z,25.31
2023-07-02T03:40:46.962Z,25.31
2023-07-02T03:41:46.779Z,25.31
2023-07-02T03:42:46.737Z,25.31
2023-07-02T03:43:46.734Z,25.32
2023-07-02T03:44:46.730Z,25.32
2023-07-02T03:45:46.755Z,25.31
2023-07-02T03:46:46.735Z,25.31
2023-07-02T03:47:46.764Z,25.31
2023-07-02T03:48:46.706Z,25.32
2023-07-02T03:49:46.697Z,25.32
2023-07-02T03:50:47.045Z,25.31
2023-07-02T03:51:46.688Z,25.31
2023-07-02T03:52:46.677Z,25.31
2023-07-02T03:53:46.671Z,25.31
2023-07-02T03:54:46.659Z,25.31
2023-07-02T03:55:46.657Z,25.31
2023-07-02T03:56:46.645Z,25.31
2023-07-02T03:57:46.669Z,25.31
2023-07-02T03:58:46.661Z,25.31
2023-07-02T03:59:46.630Z,25.31
2023-07-02T04:00:46.770Z,25.32
2023-07-02T04:01:46.643Z,25.31
2023-07-02T04:02:46.740Z,25.31
2023-07-02T04:03:46.619Z,25.32
2023-07-02T04:04:46.631Z,25.31
2023-07-02T04:05:46.617Z,25.31
2023-07-02T04:06:46.645Z,25.31
2023-07-02T04:07:46.662Z,25.32
2023-07-02T04:08:46.682Z,25.31
2023-07-02T04:09:46.704Z,25.31
2023-07-02T04:10:47.027Z,25.31
2023-07-02T04:11:46.729Z,25.31
2023-07-02T04:12:46.759Z,25.32
2023-07-02T04:13:46.801Z,25.31
2023-07-02T04:14:46.788Z,25.31
2023-07-02T04:15:46.847Z,25.31
2023-07-02T04:16:46.841Z,25.31
2023-07-02T04:17:46.862Z,25.32
2023-07-02T04:18:46.877Z,25.32
2023-07-02T04:19:46.897Z,25.32
2023-07-02T04:20:47.188Z,25.32
2023-07-02T04:21:46.928Z,25.32
2023-07-02T04:22:46.943Z,25.33
2023-07-02T04:23:46.970Z,25.33
2023-07-02T04:24:47.794Z,25.33
2023-07-02T04:26:00.055Z,25.33
2023-07-02T04:27:19.385Z,25.32
2023-07-02T04:27:50.291Z,25.33
2023-07-02T04:28:47.208Z,25.32
2023-07-02T04:29:47.231Z,25.33
2023-07-02T04:30:47.604Z,25.33
2023-07-02T04:31:47.283Z,25.33
2023-07-02T04:32:47.321Z,25.33
2023-07-02T04:33:47.280Z,25.34
2023-07-02T04:34:47.297Z,25.33
2023-07-02T04:35:47.307Z,25.34
2023-07-02T04:36:47.321Z,25.34
2023-07-02T04:37:47.338Z,25.33
2023-07-02T04:38:47.355Z,25.33
2023-07-02T04:39:47.458Z,25.33
2023-07-02T04:40:47.707Z,25.33
2023-07-02T04:41:47.399Z,25.32
2023-07-02T04:42:47.415Z,25.33
2023-07-02T04:43:47.428Z,25.32
2023-07-02T04:44:47.443Z,25.32
2023-07-02T04:45:47.483Z,25.33
2023-07-02T04:46:47.469Z,25.33
2023-07-02T04:47:47.520Z,25.33
2023-07-02T04:48:47.556Z,25.33
2023-07-02T04:49:47.518Z,25.33
2023-07-02T04:50:47.817Z,25.32
2023-07-02T04:51:47.563Z,25.33
2023-07-02T04:52:47.560Z,25.32
2023-07-02T04:53:47.574Z,25.33
2023-07-02T04:54:47.592Z,25.33
2023-07-02T04:55:47.610Z,25.33
2023-07-02T04:56:47.617Z,25.33
2023-07-02T04:57:47.633Z,25.33
2023-07-02T04:58:47.646Z,25.33
2023-07-02T04:59:47.645Z,25.33
2023-07-02T05:00:48.064Z,25.34
2023-07-02T05:01:47.721Z,25.33
2023-07-02T05:02:47.736Z,25.33
2023-07-02T05:03:47.705Z,25.33
2023-07-02T05:04:47.790Z,25.34
2023-07-02T05:05:47.722Z,25.34
2023-07-02T05:06:47.726Z,25.33
2023-07-02T05:07:47.747Z,25.33
2023-07-02T05:08:47.763Z,25.34
2023-07-02T05:09:47.787Z,25.33
2023-07-02T05:10:48.408Z,25.34
2023-07-02T05:11:47.809Z,25.33
2023-07-02T05:12:47.818Z,25.34
2023-07-02T05:13:47.844Z,25.34
2023-07-02T05:14:47.872Z,25.34
2023-07-02T05:15:47.852Z,25.33
2023-07-02T05:16:47.908Z,25.34
2023-07-02T05:17:47.938Z,25.34
2023-07-02T05:18:47.889Z,25.33
2023-07-02T05:19:47.901Z,25.33
2023-07-02T05:20:48.172Z,25.34
2023-07-02T05:21:47.920Z,25.33
2023-07-02T05:22:47.957Z,25.34
2023-07-02T05:23:47.954Z,25.34
2023-07-02T05:24:47.958Z,25.34
2023-07-02T05:25:47.976Z,25.33
2023-07-02T05:26:47.980Z,25.34
2023-07-02T05:27:49.455Z,25.34
2023-07-02T05:28:48.088Z,25.33
2023-07-02T05:29:48.365Z,25.34
2023-07-02T05:30:48.493Z,25.33
2023-07-02T05:31:48.147Z,25.33
2023-07-02T05:32:48.149Z,25.33
2023-07-02T05:33:49.105Z,25.33
2023-07-02T05:34:48.167Z,25.33
2023-07-02T05:35:48.185Z,25.33
2023-07-02T05:36:48.199Z,25.33
2023-07-02T05:37:48.207Z,25.33
2023-07-02T05:38:48.221Z,25.33
2023-07-02T05:39:48.235Z,25.33
2023-07-02T05:40:48.704Z,25.33
2023-07-02T05:41:48.270Z,25.32
2023-07-02T05:42:48.292Z,25.32
2023-07-02T05:43:48.295Z,25.32
2023-07-02T05:44:48.306Z,25.32
2023-07-02T05:45:48.318Z,25.33
2023-07-02T05:46:48.412Z,25.33
2023-07-02T05:47:48.381Z,25.32
2023-07-02T05:48:48.385Z,25.32
2023-07-02T05:49:48.441Z,25.33
2023-07-02T05:50:48.703Z,25.33
2023-07-02T05:51:48.530Z,25.33
2023-07-02T05:52:48.464Z,25.33
2023-07-02T05:53:48.469Z,25.32
2023-07-02T05:54:48.489Z,25.33
2023-07-02T05:55:48.502Z,25.32
2023-07-02T05:56:48.526Z,25.32
2023-07-02T05:57:48.546Z,25.32
2023-07-02T05:58:49.100Z,25.32
2023-07-02T05:59:48.597Z,25.32
2023-07-02T06:00:48.999Z,25.32
2023-07-02T06:01:48.594Z,25.32
2023-07-02T06:02:48.673Z,25.32
2023-07-02T06:03:48.678Z,25.31
2023-07-02T06:04:48.835Z,25.33
2023-07-02T06:05:49.023Z,25.32
2023-07-02T06:06:48.675Z,25.33
2023-07-02T06:07:48.701Z,25.33
2023-07-02T06:08:48.708Z,25.33
2023-07-02T06:09:48.719Z,25.33
2023-07-02T06:10:49.227Z,25.33
2023-07-02T06:11:48.756Z,25.32
2023-07-02T06:12:48.773Z,25.33
2023-07-02T06:13:48.826Z,25.33
2023-07-02T06:14:48.801Z,25.33
2023-07-02T06:15:48.818Z,25.33
2023-07-02T06:16:48.842Z,25.33
2023-07-02T06:17:48.877Z,25.33
2023-07-02T06:18:48.936Z,25.33
2023-07-02T06:19:48.869Z,25.34
2023-07-02T06:20:49.228Z,25.33
2023-07-02T06:21:48.933Z,25.34
2023-07-02T06:22:48.926Z,25.34
2023-07-02T06:23:48.940Z,25.33
2023-07-02T06:24:48.958Z,25.33
2023-07-02T06:25:48.977Z,25.35
2023-07-02T06:26:49.005Z,25.34
2023-07-02T06:27:48.996Z,25.34
2023-07-02T06:28:49.015Z,25.34
2023-07-02T06:29:49.028Z,25.34
2023-07-02T06:30:49.658Z,25.34
2023-07-02T06:31:49.062Z,25.34
2023-07-02T06:32:49.162Z,25.34
2023-07-02T06:33:49.126Z,25.34
2023-07-02T06:34:49.109Z,25.34
2023-07-02T06:35:49.120Z,25.34
2023-07-02T06:36:49.136Z,25.34
2023-07-02T06:37:49.201Z,25.34
2023-07-02T06:38:49.190Z,25.34
2023-07-02T06:39:49.186Z,25.35
2023-07-02T06:40:49.630Z,25.35
2023-07-02T06:41:49.215Z,25.35
2023-07-02T06:42:49.251Z,25.34
2023-07-02T06:43:49.282Z,25.34
2023-07-02T06:44:49.312Z,25.34
2023-07-02T06:45:49.284Z,25.34
2023-07-02T06:46:49.492Z,25.35
2023-07-02T06:47:49.341Z,25.34
2023-07-02T06:48:49.321Z,25.35
2023-07-02T06:49:49.338Z,25.35
2023-07-02T06:50:49.796Z,25.35
2023-07-02T06:51:49.353Z,25.35
2023-07-02T06:52:49.364Z,25.35
2023-07-02T06:53:49.403Z,25.35
2023-07-02T06:54:49.395Z,25.34
2023-07-02T06:55:49.411Z,25.34
2023-07-02T06:56:49.429Z,25.35
2023-07-02T06:57:49.441Z,25.34
2023-07-02T06:58:49.487Z,25.36
2023-07-02T06:59:50.712Z,25.35
2023-07-02T07:00:49.656Z,25.37
2023-07-02T07:01:49.536Z,25.36
2023-07-02T07:02:49.524Z,25.36
2023-07-02T07:03:49.564Z,25.36
2023-07-02T07:04:49.557Z,25.36
2023-07-02T07:05:49.524Z,25.37
2023-07-02T07:06:49.534Z,25.37
2023-07-02T07:07:49.551Z,25.36
2023-07-02T07:08:49.564Z,25.37
2023-07-02T07:09:49.597Z,25.38
2023-07-02T07:10:49.857Z,25.38
2023-07-02T07:11:49.596Z,25.38
2023-07-02T07:12:49.599Z,25.38
2023-07-02T07:13:49.609Z,25.38
2023-07-02T07:14:49.669Z,25.38
2023-07-02T07:15:49.625Z,25.38
2023-07-02T07:16:49.653Z,25.38
2023-07-02T07:17:49.710Z,25.39
2023-07-02T07:18:49.718Z,25.38
2023-07-02T07:19:49.662Z,25.39
2023-07-02T07:20:49.965Z,25.39
2023-07-02T07:21:49.676Z,25.38
2023-07-02T07:22:49.694Z,25.39
2023-07-02T07:23:49.712Z,25.38
2023-07-02T07:24:49.709Z,25.38
2023-07-02T07:25:49.738Z,25.39
2023-07-02T07:26:50.639Z,25.39
2023-07-02T07:27:49.730Z,25.39
2023-07-02T07:28:49.730Z,25.39
2023-07-02T07:29:49.750Z,25.39
2023-07-02T07:30:50.085Z,25.39
2023-07-02T07:31:49.794Z,25.39
2023-07-02T07:32:49.836Z,25.39
2023-07-02T07:33:49.820Z,25.39
2023-07-02T07:34:49.786Z,25.40
2023-07-02T07:35:49.783Z,25.40
2023-07-02T07:36:49.788Z,25.40
2023-07-02T07:37:49.797Z,25.39
2023-07-02T07:38:49.826Z,25.40
2023-07-02T07:39:49.820Z,25.40
2023-07-02T07:40:50.081Z,25.39
2023-07-02T07:41:49.962Z,25.40
2023-07-02T07:42:49.830Z,25.40
2023-07-02T07:43:49.828Z,25.40
2023-07-02T07:44:49.831Z,25.40
2023-07-02T07:45:49.914Z,25.40
2023-07-02T07:46:49.844Z,25.41
2023-07-02T07:47:49.907Z,25.41
2023-07-02T07:48:49.875Z,25.41
2023-07-02T07:49:49.869Z,25.41
2023-07-02T07:50:50.252Z,25.41
2023-07-02T07:51:49.875Z,25.41
2023-07-02T07:52:49.890Z,25.41
2023-07-02T07:53:49.893Z,25.41
2023-07-02T07:54:49.911Z,25.42
2023-07-02T07:55:49.911Z,25.42
2023-07-02T07:56:49.930Z,25.42
2023-07-02T07:57:49.942Z,25.42
2023-07-02T07:58:49.921Z,25.42
2023-07-02T07:59:49.935Z,25.42
2023-07-02T08:00:50.412Z,25.42
2023-07-02T08:01:50.004Z,25.42
2023-07-02T08:02:50.134Z,25.42
2023-07-02T08:03:50.006Z,25.42
2023-07-02T08:04:50.094Z,25.42
2023-07-02T08:05:49.983Z,25.42
2023-07-02T08:06:49.993Z,25.42
2023-07-02T08:07:50.034Z,25.42
2023-07-02T08:08:50.080Z,25.42
2023-07-02T08:09:50.059Z,25.43
2023-07-02T08:10:50.394Z,25.43
2023-07-02T08:11:50.035Z,25.43
2023-07-02T08:12:50.038Z,25.44
2023-07-02T08:13:51.736Z,25.44
2023-07-02T08:14:50.046Z,25.44
2023-07-02T08:15:50.064Z,25.44
2023-07-02T08:16:50.039Z,25.44
2023-07-02T08:17:50.112Z,25.45
2023-07-02T08:18:50.030Z,25.45
2023-07-02T08:19:50.009Z,25.44
2023-07-02T08:20:50.307Z,25.45
2023-07-02T08:21:50.000Z,25.45
2023-07-02T08:22:50.000Z,25.45
2023-07-02T08:23:49.999Z,25.46
2023-07-02T08:24:49.978Z,25.45
2023-07-02T08:25:49.976Z,25.46
2023-07-02T08:26:49.985Z,25.46
2023-07-02T08:27:49.962Z,25.47
2023-07-02T08:28:49.994Z,25.46
2023-07-02T08:29:49.972Z,25.47
2023-07-02T08:30:50.234Z,25.48
2023-07-02T08:31:50.021Z,25.47
2023-07-02T08:32:50.042Z,25.49
2023-07-02T08:33:49.918Z,25.49
2023-07-02T08:34:49.915Z,25.48
2023-07-02T08:35:49.906Z,25.48
2023-07-02T08:36:49.894Z,25.50
2023-07-02T08:37:49.889Z,25.50
2023-07-02T08:38:49.886Z,25.50
2023-07-02T08:39:49.889Z,25.50
2023-07-02T08:40:50.461Z,25.50
2023-07-02T08:41:49.861Z,25.52
2023-07-02T08:42:49.868Z,25.51
2023-07-02T08:43:49.896Z,25.52
2023-07-02T08:44:49.864Z,25.52
2023-07-02T08:45:49.891Z,25.52
2023-07-02T08:46:49.862Z,25.52
2023-07-02T08:47:49.847Z,25.53
2023-07-02T08:48:49.828Z,25.53
2023-07-02T08:49:49.808Z,25.54
2023-07-02T08:50:50.099Z,25.56
2023-07-02T08:51:49.801Z,25.56
2023-07-02T08:52:49.798Z,25.57
2023-07-02T08:53:49.793Z,25.56
2023-07-02T08:54:49.817Z,25.56
2023-07-02T08:55:49.821Z,25.56
2023-07-02T08:56:49.768Z,25.56
2023-07-02T08:57:49.758Z,25.56
2023-07-02T08:58:49.775Z,25.56
2023-07-02T08:59:49.754Z,25.55
2023-07-02T09:00:50.022Z,25.55
2023-07-02T09:01:49.757Z,25.56
2023-07-02T09:02:49.805Z,25.55
2023-07-02T09:03:49.739Z,25.56
2023-07-02T09:04:49.785Z,25.56
2023-07-02T09:05:49.720Z,25.57
2023-07-02T09:06:49.700Z,25.56
2023-07-02T09:07:52.719Z,25.57
2023-07-02T09:08:49.705Z,25.56
2023-07-02T09:09:49.707Z,25.56
2023-07-02T09:10:50.105Z,25.57
2023-07-02T09:11:49.701Z,25.57
2023-07-02T09:12:49.690Z,25.58
2023-07-02T09:13:49.688Z,25.59
2023-07-02T09:14:49.696Z,25.59
2023-07-02T09:15:49.694Z,25.59
2023-07-02T09:16:49.715Z,25.58
2023-07-02T09:17:49.732Z,25.60
2023-07-02T09:18:49.681Z,25.59
2023-07-02T09:19:49.676Z,25.58
2023-07-02T09:20:49.911Z,25.59
2023-07-02T09:21:49.662Z,25.59
2023-07-02T09:22:49.665Z,25.59
2023-07-02T09:23:49.660Z,25.59
2023-07-02T09:24:49.667Z,25.59
2023-07-02T09:25:49.672Z,25.58
2023-07-02T09:26:49.650Z,25.59
2023-07-02T09:27:49.648Z,25.58
2023-07-02T09:28:51.008Z,25.59
2023-07-02T09:29:49.654Z,25.58
2023-07-02T09:30:49.920Z,25.59
2023-07-02T09:32:07.979Z,25.59
2023-07-02T09:32:49.772Z,25.57
2023-07-02T09:33:49.706Z,25.58
2023-07-02T09:34:49.633Z,25.58
2023-07-02T09:35:49.860Z,25.58
2023-07-02T09:36:49.605Z,25.58
2023-07-02T09:37:49.611Z,25.58
2023-07-02T09:38:49.596Z,25.57
2023-07-02T09:39:49.618Z,25.58
2023-07-02T09:40:49.754Z,25.58
2023-07-02T09:41:49.570Z,25.56
2023-07-02T09:42:49.570Z,25.56
2023-07-02T09:43:49.551Z,25.56
2023-07-02T09:44:49.585Z,25.55
2023-07-02T09:45:49.541Z,25.56
2023-07-02T09:46:49.628Z,25.55
2023-07-02T09:47:49.583Z,25.55
2023-07-02T09:48:49.529Z,25.54
2023-07-02T09:49:49.542Z,25.55
2023-07-02T09:50:49.726Z,25.54
2023-07-02T09:51:49.520Z,25.55
2023-07-02T09:52:49.514Z,25.54
2023-07-02T09:53:49.498Z,25.54
2023-07-02T09:54:49.499Z,25.54
2023-07-02T09:55:49.493Z,25.54
2023-07-02T09:56:49.472Z,25.54
2023-07-02T09:57:49.477Z,25.54
2023-07-02T09:58:49.461Z,25.54
2023-07-02T09:59:49.463Z,25.53
2023-07-02T10:00:49.735Z,25.53
2023-07-02T10:01:49.527Z,25.54
2023-07-02T10:02:49.484Z,25.54
2023-07-02T10:03:49.446Z,25.54
2023-07-02T10:04:49.570Z,25.55
2023-07-02T10:05:50.025Z,25.54
2023-07-02T10:06:49.410Z,25.55
2023-07-02T10:07:49.416Z,25.55
2023-07-02T10:08:49.395Z,25.56
2023-07-02T10:09:49.394Z,25.56
2023-07-02T10:10:49.834Z,25.56
2023-07-02T10:11:49.379Z,25.57
2023-07-02T10:12:49.412Z,25.58
2023-07-02T10:13:49.369Z,25.59
2023-07-02T10:14:49.393Z,25.58
2023-07-02T10:15:49.356Z,25.59
2023-07-02T10:16:49.420Z,25.59
2023-07-02T10:17:49.499Z,25.60
2023-07-02T10:18:49.328Z,25.60
2023-07-02T10:19:51.493Z,25.59
2023-07-02T10:20:49.707Z,25.59
2023-07-02T10:21:49.332Z,25.60
2023-07-02T10:22:49.317Z,25.60
2023-07-02T10:23:49.306Z,25.60
2023-07-02T10:24:49.289Z,25.60
2023-07-02T10:25:49.277Z,25.60
2023-07-02T10:26:49.281Z,25.59
2023-07-02T10:27:49.266Z,25.60
2023-07-02T10:28:49.267Z,25.60
2023-07-02T10:29:49.254Z,25.60
2023-07-02T10:30:49.594Z,25.61
2023-07-02T10:31:49.276Z,25.61
2023-07-02T10:32:49.274Z,25.61
2023-07-02T10:33:49.223Z,25.62
2023-07-02T10:34:49.221Z,25.62
2023-07-02T10:35:49.220Z,25.62
2023-07-02T10:36:49.216Z,25.63
2023-07-02T10:37:49.217Z,25.63
2023-07-02T10:38:49.188Z,25.64
2023-07-02T10:39:49.211Z,25.64
2023-07-02T10:40:49.444Z,25.64
2023-07-02T10:41:49.182Z,25.64
2023-07-02T10:42:49.192Z,25.65
2023-07-02T10:43:49.212Z,25.65
2023-07-02T10:44:49.140Z,25.66
2023-07-02T10:45:49.164Z,25.67
2023-07-02T10:46:49.144Z,25.66
2023-07-02T10:47:49.208Z,25.66
2023-07-02T10:48:49.122Z,25.67
2023-07-02T10:49:49.138Z,25.67
2023-07-02T10:50:49.426Z,25.67
2023-07-02T10:51:49.105Z,25.67
2023-07-02T10:52:49.099Z,25.67
2023-07-02T10:53:50.809Z,25.66
2023-07-02T10:54:49.078Z,25.66
2023-07-02T10:55:49.502Z,25.66
2023-07-02T10:56:49.068Z,25.67
2023-07-02T10:57:49.068Z,25.66
2023-07-02T10:58:49.073Z,25.65
2023-07-02T10:59:49.083Z,25.65
2023-07-02T11:00:49.053Z,25.65
2023-07-02T11:01:49.116Z,25.65
2023-07-02T11:02:49.310Z,25.65
2023-07-02T11:03:49.046Z,25.66
2023-07-02T11:04:49.204Z,25.65
2023-07-02T11:05:49.442Z,25.64
2023-07-02T11:06:49.012Z,25.64
2023-07-02T11:07:49.001Z,25.65
2023-07-02T11:08:49.030Z,25.64
2023-07-02T11:09:49.062Z,25.65
2023-07-02T11:10:49.007Z,25.65
2023-07-02T11:11:48.980Z,25.65
2023-07-02T11:12:49.001Z,25.65
2023-07-02T11:13:48.978Z,25.65
2023-07-02T11:14:49.008Z,25.65
2023-07-02T11:15:49.681Z,25.66
2023-07-02T11:16:49.084Z,25.66
2023-07-02T11:17:49.276Z,25.66
2023-07-02T11:18:49.310Z,25.66
2023-07-02T11:19:49.111Z,25.66
2023-07-02T11:20:49.125Z,25.66
2023-07-02T11:21:49.163Z,25.66
2023-07-02T11:22:49.158Z,25.66
2023-07-02T11:23:49.166Z,25.66
2023-07-02T11:24:49.195Z,25.66
2023-07-02T11:25:49.445Z,25.67
2023-07-02T11:26:49.200Z,25.66
2023-07-02T11:27:49.185Z,25.66
2023-07-02T11:28:49.185Z,25.66
2023-07-02T11:29:49.223Z,25.66
2023-07-02T11:30:49.299Z,25.66
2023-07-02T11:31:49.197Z,25.66
2023-07-02T11:32:49.229Z,25.66
2023-07-02T11:33:49.206Z,25.67
2023-07-02T11:34:49.296Z,25.67
2023-07-02T11:35:49.489Z,25.67
2023-07-02T11:36:49.267Z,25.67
2023-07-02T11:37:49.284Z,25.67
2023-07-02T11:38:49.289Z,25.67
2023-07-02T11:39:49.304Z,25.67
2023-07-02T11:40:49.301Z,25.67
2023-07-02T11:41:49.362Z,25.67
2023-07-02T11:42:49.340Z,25.68
2023-07-02T11:43:49.372Z,25.68
2023-07-02T11:44:49.389Z,25.68
2023-07-02T11:45:49.809Z,25.68
2023-07-02T11:46:49.460Z,25.68
2023-07-02T11:47:49.669Z,25.69
2023-07-02T11:48:49.507Z,25.68
2023-07-02T11:49:49.538Z,25.69
2023-07-02T11:50:49.571Z,25.68
2023-07-02T11:51:49.688Z,25.68
2023-07-02T11:52:49.657Z,25.69
2023-07-02T11:53:49.716Z,25.69
2023-07-02T11:54:49.791Z,25.69
2023-07-02T11:55:50.323Z,25.68
2023-07-02T11:56:49.870Z,25.67
2023-07-02T11:57:49.964Z,25.68
2023-07-02T11:58:49.973Z,25.69
2023-07-02T11:59:50.000Z,25.69
2023-07-02T12:00:50.038Z,25.68
2023-07-02T12:01:50.153Z,25.69
2023-07-02T12:02:50.297Z,25.69
2023-07-02T12:03:50.277Z,25.70
2023-07-02T12:04:50.277Z,25.69
2023-07-02T12:05:50.592Z,25.69
2023-07-02T12:06:50.340Z,25.69
2023-07-02T12:07:50.453Z,25.70
2023-07-02T12:08:50.429Z,25.69
2023-07-02T12:09:50.491Z,25.69
2023-07-02T12:10:50.555Z,25.70
2023-07-02T12:11:50.591Z,25.70
2023-07-02T12:12:50.679Z,25.71
2023-07-02T12:13:50.753Z,25.71
2023-07-02T12:14:50.798Z,25.71
2023-07-02T12:15:50.952Z,25.71
2023-07-02T12:16:50.998Z,25.71
2023-07-02T12:17:51.045Z,25.71
2023-07-02T12:18:51.007Z,25.71
2023-07-02T12:19:51.073Z,25.71
2023-07-02T12:20:51.114Z,25.71
2023-07-02T12:21:51.165Z,25.71
2023-07-02T12:22:51.231Z,25.70
2023-07-02T12:23:51.260Z,25.71
2023-07-02T12:24:51.407Z,25.70
2023-07-02T12:25:51.682Z,25.71
2023-07-02T12:26:51.413Z,25.69
2023-07-02T12:27:51.416Z,25.70
2023-07-02T12:28:51.479Z,25.69
2023-07-02T12:29:51.549Z,25.69
2023-07-02T12:30:51.586Z,25.70
2023-07-02T12:31:51.602Z,25.69
2023-07-02T12:32:51.696Z,25.70
2023-07-02T12:33:51.701Z,25.69
2023-07-02T12:34:51.744Z,25.69
2023-07-02T12:35:51.933Z,25.69
2023-07-02T12:36:51.808Z,25.69
2023-07-02T12:37:51.867Z,25.69
2023-07-02T12:38:51.871Z,25.69
2023-07-02T12:39:51.917Z,25.69
2023-07-02T12:40:51.942Z,25.68
2023-07-02T12:41:51.972Z,25.69
2023-07-02T12:42:52.017Z,25.69
2023-07-02T12:43:52.048Z,25.69
2023-07-02T12:44:52.106Z,25.69
2023-07-02T12:45:52.318Z,25.69
2023-07-02T12:46:52.341Z,25.68
2023-07-02T12:47:52.254Z,25.69
2023-07-02T12:48:52.259Z,25.69
2023-07-02T12:49:52.297Z,25.70
2023-07-02T12:50:52.315Z,25.71
2023-07-02T12:51:52.396Z,25.71
2023-07-02T12:52:52.414Z,25.71